Time;durP1;ratioP1;P1;durP2;ratioP2;P2;SDS_P1;SDS_P2;PMS_P1;PMS_P2;Temp;Humidity;BMP_temperature;BMP_pressure;BME280_temperature;BME280_humidity;BME280_pressure;Samples;Min_cycle;Max_cycle;Signal;HPM_P1;HPM_P2
2021/04/07 00:00:42;;;;;;;1.55;0.65;;;2.70;99.90;;;;;;5054587;28;20025;-73
2021/04/07 00:03:09;;;;;;;0.47;0.38;;;2.80;99.90;;;;;;5056037;28;20037;-73
2021/04/07 00:05:38;;;;;;;2.83;1.48;;;2.80;99.90;;;;;;5055998;28;20032;-73
2021/04/07 00:08:05;;;;;;;1.75;0.70;;;2.80;99.90;;;;;;5020792;28;20174;-73
2021/04/07 00:10:38;;;;;;;3.35;1.02;;;2.80;99.90;;;;;;5054639;28;20120;-73
2021/04/07 00:13:06;;;;;;;2.22;0.80;;;2.80;99.50;;;;;;5055631;28;20029;-73
2021/04/07 00:15:33;;;;;;;2.90;1.10;;;2.80;99.70;;;;;;5055449;28;20021;-73
2021/04/07 00:17:59;;;;;;;3.65;1.17;;;2.80;99.70;;;;;;5055529;28;20033;-73
2021/04/07 00:20:26;;;;;;;2.85;1.05;;;2.80;99.70;;;;;;5055612;28;20159;-74
2021/04/07 00:22:53;;;;;;;4.35;0.95;;;2.80;99.70;;;;;;5054371;28;20029;-73
2021/04/07 00:25:22;;;;;;;2.40;0.73;;;2.80;99.40;;;;;;5071090;28;20021;-74
2021/04/07 00:28:07;;;;;;;5.25;1.10;;;2.80;99.50;;;;;;5054093;28;20465;-73
2021/04/07 00:30:36;;;;;;;2.13;0.73;;;2.70;99.60;;;;;;5055447;28;20044;-73
2021/04/07 00:33:03;;;;;;;4.43;1.80;;;2.70;99.30;;;;;;5053817;28;20434;-76
2021/04/07 00:35:29;;;;;;;4.63;1.10;;;2.70;98.90;;;;;;5055027;28;20028;-74
2021/04/07 00:37:56;;;;;;;4.78;0.98;;;2.70;98.70;;;;;;5055338;28;20037;-73
2021/04/07 00:40:22;;;;;;;3.20;1.45;;;2.70;98.40;;;;;;5055129;28;20053;-73
2021/04/07 00:42:51;;;;;;;3.72;0.98;;;2.70;98.40;;;;;;5055226;28;20044;-73
2021/04/07 00:45:17;;;;;;;3.83;1.00;;;2.60;98.40;;;;;;5053691;28;20029;-73
2021/04/07 00:47:43;;;;;;;1.90;1.13;;;2.60;98.60;;;;;;5054962;28;20040;-74
2021/04/07 00:50:11;;;;;;;2.53;0.85;;;2.70;98.50;;;;;;5055054;28;20397;-73
2021/04/07 00:52:37;;;;;;;1.88;0.90;;;2.70;98.50;;;;;;5054782;28;20420;-73
2021/04/07 00:55:04;;;;;;;3.83;1.10;;;2.70;98.60;;;;;;5054928;28;20063;-73
2021/04/07 00:57:31;;;;;;;12.05;1.52;;;2.70;98.80;;;;;;5055000;28;20116;-73
2021/04/07 00:59:58;;;;;;;3.42;0.80;;;2.70;98.60;;;;;;5053638;28;20029;-73
2021/04/07 01:02:25;;;;;;;5.43;0.90;;;2.70;98.60;;;;;;5054954;28;20424;-73
2021/04/07 01:04:51;;;;;;;5.70;1.58;;;2.70;98.30;;;;;;5054442;28;20059;-74
2021/04/07 01:07:18;;;;;;;1.92;1.08;;;2.70;98.10;;;;;;5054064;28;20041;-73
2021/04/07 01:09:43;;;;;;;2.75;0.90;;;2.70;98.30;;;;;;5054070;28;20048;-74
2021/04/07 01:12:11;;;;;;;2.75;1.13;;;2.70;98.30;;;;;;5054501;28;20051;-74
2021/04/07 01:14:38;;;;;;;2.50;0.93;;;2.70;98.30;;;;;;5054393;28;20108;-73
2021/04/07 01:17:06;;;;;;;3.47;1.05;;;2.70;98.20;;;;;;5053190;28;20347;-73
2021/04/07 01:19:32;;;;;;;5.18;1.00;;;2.70;98.80;;;;;;5054578;28;20033;-74
2021/04/07 01:21:59;;;;;;;4.45;1.00;;;2.70;98.80;;;;;;5054328;28;20033;-73
2021/04/07 01:24:25;;;;;;;4.50;0.98;;;2.70;99.00;;;;;;5053384;28;20056;-73
2021/04/07 01:26:52;;;;;;;5.72;0.93;;;2.70;99.10;;;;;;5054226;28;20079;-74
2021/04/07 01:29:19;;;;;;;4.22;1.00;;;2.70;99.40;;;;;;5052590;28;20112;-73
2021/04/07 01:31:54;;;;;;;3.05;0.85;;;2.70;99.70;;;;;;5054285;28;20036;-73
2021/04/07 01:34:29;;;;;;;3.00;1.20;;;2.60;99.70;;;;;;5054421;28;20112;-74
2021/04/07 01:36:57;;;;;;;1.35;0.70;;;2.70;99.50;;;;;;5053692;28;20075;-74
2021/04/07 01:39:26;;;;;;;7.85;1.38;;;2.60;99.90;;;;;;5054261;28;20040;-76
2021/04/07 01:41:52;;;;;;;2.47;1.10;;;2.60;99.90;;;;;;5053822;28;20485;-74
2021/04/07 01:44:20;;;;;;;3.20;1.10;;;2.60;99.90;;;;;;5054137;28;20047;-73
2021/04/07 01:46:46;;;;;;;3.83;0.90;;;2.60;99.70;;;;;;5054101;28;20082;-73
2021/04/07 01:49:14;;;;;;;3.97;1.00;;;2.60;99.80;;;;;;5054015;28;20529;-74
2021/04/07 01:51:40;;;;;;;3.97;0.77;;;2.60;99.70;;;;;;5053849;28;20033;-75
2021/04/07 01:54:11;;;;;;;3.17;1.23;;;2.60;99.70;;;;;;5053835;28;20127;-73
2021/04/07 01:56:53;;;;;;;4.22;0.90;;;2.60;99.70;;;;;;5053856;28;20492;-73
2021/04/07 01:59:22;;;;;;;5.32;1.20;;;2.60;99.90;;;;;;5053719;28;20486;-73
2021/04/07 02:01:49;;;;;;;2.80;1.30;;;2.60;99.90;;;;;;5053623;28;20029;-74
2021/04/07 02:04:16;;;;;;;3.80;1.60;;;2.50;99.90;;;;;;5053748;28;20513;-72
2021/04/07 02:06:47;;;;;;;2.35;1.13;;;2.50;99.90;;;;;;5053551;28;20083;-72
2021/04/07 02:09:13;;;;;;;5.57;1.33;;;2.50;99.90;;;;;;5053294;28;20094;-73
2021/04/07 02:11:45;;;;;;;5.68;1.35;;;2.50;99.90;;;;;;5053545;28;20045;-73
2021/04/07 02:14:23;;;;;;;2.33;1.10;;;2.50;99.90;;;;;;5053407;28;20025;-73
2021/04/07 02:17:07;;;;;;;3.10;1.63;;;2.60;99.90;;;;;;5053317;28;20478;-75
2021/04/07 02:19:35;;;;;;;3.50;1.17;;;2.60;99.90;;;;;;5053339;28;20064;-72
2021/04/07 02:22:13;;;;;;;7.20;1.85;;;2.60;99.90;;;;;;5053016;28;20067;-73
2021/04/07 02:24:49;;;;;;;9.20;2.30;;;2.60;99.90;;;;;;5053087;28;20040;-74
2021/04/07 02:27:21;;;;;;;1.67;1.08;;;2.60;99.90;;;;;;5047365;28;20079;-73
2021/04/07 02:29:51;;;;;;;5.50;1.50;;;2.50;99.90;;;;;;5033318;28;20086;-73
2021/04/07 02:32:17;;;;;;;4.63;1.55;;;2.50;99.90;;;;;;5032058;28;20037;-73
2021/04/07 02:34:44;;;;;;;6.03;1.85;;;2.40;99.90;;;;;;5044386;28;20090;-74
2021/04/07 02:37:12;;;;;;;9.35;1.67;;;2.40;99.90;;;;;;5052915;28;20116;-73
2021/04/07 02:39:38;;;;;;;4.40;1.98;;;2.50;99.90;;;;;;5053118;28;20037;-74
2021/04/07 02:42:05;;;;;;;3.70;1.52;;;2.50;99.90;;;;;;5052842;28;20473;-74
2021/04/07 02:44:31;;;;;;;2.97;1.33;;;2.50;99.90;;;;;;5052771;28;20189;-74
2021/04/07 02:46:57;;;;;;;3.53;1.20;;;2.60;99.90;;;;;;5052474;28;20512;-73
2021/04/07 02:49:23;;;;;;;6.93;1.85;;;2.50;99.90;;;;;;5052782;28;20082;-73
2021/04/07 02:51:50;;;;;;;2.90;1.25;;;2.60;99.90;;;;;;5052558;28;20355;-73
2021/04/07 02:54:16;;;;;;;9.73;2.15;;;2.50;99.90;;;;;;5052753;28;20036;-74
2021/04/07 02:56:42;;;;;;;4.47;1.45;;;2.50;99.90;;;;;;5051258;28;20068;-72
2021/04/07 02:59:08;;;;;;;2.65;1.40;;;2.40;99.90;;;;;;5051832;28;20106;-74
2021/04/07 03:01:34;;;;;;;3.33;1.30;;;2.50;99.90;;;;;;5052171;28;20406;-74
2021/04/07 03:04:00;;;;;;;2.47;1.10;;;2.50;99.90;;;;;;5051988;28;20425;-73
2021/04/07 03:06:26;;;;;;;7.15;1.40;;;2.40;99.90;;;;;;5052131;28;20037;-73
2021/04/07 03:08:51;;;;;;;2.63;1.10;;;2.40;99.90;;;;;;5051974;28;20094;-74
2021/04/07 03:11:17;;;;;;;4.28;1.25;;;2.40;99.90;;;;;;5052523;28;20025;-74
2021/04/07 03:13:44;;;;;;;2.28;1.15;;;2.50;99.90;;;;;;5052435;28;20095;-73
2021/04/07 03:16:10;;;;;;;4.30;1.55;;;2.40;99.90;;;;;;5051229;28;20429;-73
2021/04/07 03:18:36;;;;;;;5.97;1.35;;;2.40;99.90;;;;;;5052140;28;20029;-73
2021/04/07 03:21:03;;;;;;;3.33;1.27;;;2.30;99.90;;;;;;5052031;28;20079;-73
2021/04/07 03:23:29;;;;;;;4.43;1.75;;;2.30;99.90;;;;;;5046932;28;20034;-73
2021/04/07 03:25:54;;;;;;;3.42;1.58;;;2.20;99.90;;;;;;5046727;28;20044;-73
2021/04/07 03:28:20;;;;;;;4.80;1.27;;;2.30;99.90;;;;;;5052184;28;20067;-72
2021/04/07 03:30:52;;;;;;;2.08;1.08;;;2.30;99.90;;;;;;5051846;28;20021;-73
2021/04/07 03:33:30;;;;;;;2.92;1.33;;;2.20;99.90;;;;;;5050817;28;20136;-74
2021/04/07 03:35:58;;;;;;;3.92;2.00;;;2.30;99.90;;;;;;5052180;28;20032;-73
2021/04/07 03:38:25;;;;;;;1.45;1.10;;;2.30;99.90;;;;;;5052058;28;20040;-73
2021/04/07 03:40:51;;;;;;;3.13;1.50;;;2.30;99.90;;;;;;5050795;28;20033;-74
2021/04/07 03:43:21;;;;;;;5.47;1.30;;;2.20;99.90;;;;;;5051925;28;20040;-74
2021/04/07 03:45:52;;;;;;;5.35;1.38;;;2.30;99.90;;;;;;5050541;28;20074;-74
2021/04/07 03:48:20;;;;;;;;;;;2.20;99.90;;;;;;5052427;28;20473;-71
2021/04/07 03:50:47;;;;;;;3.85;1.42;;;2.30;99.90;;;;;;5042939;28;19913;-71
2021/04/07 03:53:17;;;;;;;5.88;1.35;;;2.30;99.90;;;;;;5031412;28;20024;-77
2021/04/07 03:55:47;;;;;;;1.98;1.17;;;2.30;99.90;;;;;;5043415;28;20025;-76
2021/04/07 03:58:13;;;;;;;4.55;1.10;;;2.30;99.90;;;;;;5047936;28;20030;-77
2021/04/07 04:00:39;;;;;;;14.02;2.20;;;2.30;99.90;;;;;;5050537;28;20179;-75
2021/04/07 04:03:07;;;;;;;9.70;1.55;;;2.40;99.90;;;;;;5048235;28;20386;-75
2021/04/07 04:05:34;;;;;;;3.50;1.15;;;2.30;99.90;;;;;;5040643;28;20026;-76
2021/04/07 04:08:00;;;;;;;4.50;1.15;;;2.40;99.90;;;;;;5039262;28;20053;-76
2021/04/07 04:10:26;;;;;;;3.80;1.10;;;2.30;99.90;;;;;;5036574;28;20029;-76
2021/04/07 04:12:54;;;;;;;6.85;1.48;;;2.40;99.90;;;;;;5042405;28;20474;-74
2021/04/07 04:15:20;;;;;;;3.58;1.00;;;2.40;99.90;;;;;;5037085;28;20029;-77
2021/04/07 04:17:47;;;;;;;4.10;1.20;;;2.30;99.90;;;;;;5039821;28;20060;-75
2021/04/07 04:20:14;;;;;;;5.25;1.65;;;2.30;99.90;;;;;;5053723;28;20439;-76
2021/04/07 04:22:40;;;;;;;4.65;1.90;;;2.30;99.90;;;;;;5030837;28;20037;-76
2021/04/07 04:25:13;;;;;;;7.50;1.92;;;2.30;99.90;;;;;;5043639;28;20031;-76
2021/04/07 04:27:39;;;;;;;7.18;1.80;;;2.30;99.90;;;;;;5031554;28;20033;-75
2021/04/07 04:30:12;;;;;;;5.53;1.20;;;2.40;99.90;;;;;;5031877;28;20390;-76
2021/04/07 04:32:38;;;;;;;5.28;1.45;;;2.30;99.90;;;;;;5031850;28;20025;-71
2021/04/07 04:35:07;;;;;;;7.78;1.63;;;2.40;99.90;;;;;;5031769;28;20112;-75
2021/04/07 04:37:33;;;;;;;5.90;1.52;;;2.30;99.90;;;;;;5031777;28;20029;-72
2021/04/07 04:39:58;;;;;;;5.18;1.40;;;2.30;99.90;;;;;;5031237;28;20037;-72
2021/04/07 04:42:24;;;;;;;3.97;1.40;;;2.30;99.90;;;;;;5031474;28;20028;-73
2021/04/07 04:44:50;;;;;;;3.53;1.27;;;2.20;99.90;;;;;;5035170;28;20037;-74
2021/04/07 04:47:16;;;;;;;3.20;1.38;;;2.20;99.90;;;;;;5034844;28;20044;-72
2021/04/07 04:49:42;;;;;;;1.50;0.73;;;2.20;99.90;;;;;;5052564;28;20402;-73
2021/04/07 04:52:07;;;;;;;5.20;1.65;;;2.30;99.90;;;;;;5060822;28;20044;-74
2021/04/07 04:54:33;;;;;;;3.58;1.30;;;2.30;99.90;;;;;;5049926;28;20030;-72
2021/04/07 04:56:59;;;;;;;4.22;2.03;;;2.30;99.90;;;;;;5035076;28;20478;-73
2021/04/07 04:59:25;;;;;;;2.88;1.05;;;2.30;99.90;;;;;;5034384;28;20532;-70
2021/04/07 05:01:50;;;;;;;3.65;1.10;;;2.10;99.90;;;;;;5035055;28;20026;-73
2021/04/07 05:04:16;;;;;;;12.05;1.23;;;2.20;99.90;;;;;;5033330;28;20087;-72
2021/04/07 05:06:42;;;;;;;3.00;1.00;;;2.10;99.90;;;;;;5035012;28;20037;-74
2021/04/07 05:09:08;;;;;;;8.13;1.70;;;2.00;99.90;;;;;;5034365;28;20049;-73
2021/04/07 05:11:34;;;;;;;5.35;1.08;;;2.00;99.90;;;;;;5034817;28;20037;-72
2021/04/07 05:14:03;;;;;;;2.80;1.10;;;2.10;99.90;;;;;;5034637;28;20116;-74
2021/04/07 05:16:32;;;;;;;3.30;0.90;;;2.10;99.90;;;;;;5040019;28;20033;-73
2021/04/07 05:18:58;;;;;;;5.13;1.45;;;2.00;99.90;;;;;;5033309;28;20041;-73
2021/04/07 05:21:24;;;;;;;8.52;1.65;;;2.20;99.90;;;;;;5047783;28;20029;-73
2021/04/07 05:23:50;;;;;;;3.15;1.17;;;2.20;99.90;;;;;;5054485;28;20029;-72
2021/04/07 05:26:15;;;;;;;7.28;1.33;;;2.10;99.90;;;;;;5053161;28;20116;-73
2021/04/07 05:28:41;;;;;;;3.53;1.00;;;2.00;99.90;;;;;;5054365;28;20041;-72
2021/04/07 05:31:09;;;;;;;11.55;1.92;;;2.00;99.90;;;;;;5053059;28;20139;-72
2021/04/07 05:33:38;;;;;;;8.30;1.40;;;2.00;99.90;;;;;;5052759;28;20032;-71
2021/04/07 05:36:07;;;;;;;2.88;1.13;;;2.00;99.90;;;;;;5052647;28;20086;-73
2021/04/07 05:38:37;;;;;;;7.00;1.50;;;2.00;99.90;;;;;;5053948;28;20397;-72
2021/04/07 05:41:04;;;;;;;8.98;1.38;;;2.00;99.90;;;;;;5036848;28;20108;-72
2021/04/07 05:43:32;;;;;;;26.10;2.25;;;2.10;99.90;;;;;;5054307;28;20389;-73
2021/04/07 05:45:57;;;;;;;4.72;1.63;;;2.10;99.90;;;;;;5051125;28;20037;-72
2021/04/07 05:48:23;;;;;;;4.78;1.23;;;2.20;99.90;;;;;;5044376;28;20041;-72
2021/04/07 05:50:52;;;;;;;7.90;1.15;;;2.20;99.90;;;;;;5049054;28;20087;-73
2021/04/07 05:53:19;;;;;;;4.80;1.35;;;2.20;99.90;;;;;;5051691;28;20119;-73
2021/04/07 05:55:53;;;;;;;4.07;1.20;;;2.20;99.90;;;;;;5053373;28;20028;-73
2021/04/07 05:58:20;;;;;;;14.98;1.58;;;2.20;99.90;;;;;;5053021;28;20087;-73
2021/04/07 06:00:47;;;;;;;2.67;0.88;;;2.10;99.90;;;;;;5052313;28;20547;-73
2021/04/07 06:03:15;;;;;;;3.17;1.20;;;2.10;99.90;;;;;;5052419;28;20036;-73
2021/04/07 06:05:45;;;;;;;8.45;1.40;;;2.10;99.90;;;;;;5053358;28;20069;-73
2021/04/07 06:08:12;;;;;;;3.38;0.80;;;2.10;99.90;;;;;;5052555;28;20056;-73
2021/04/07 06:10:42;;;;;;;6.53;1.20;;;2.10;99.90;;;;;;5052419;28;20040;-73
2021/04/07 06:13:10;;;;;;;6.22;1.00;;;2.10;99.90;;;;;;5052110;28;20037;-73
2021/04/07 06:15:38;;;;;;;4.78;1.25;;;2.10;99.90;;;;;;5031969;28;20067;-74
2021/04/07 06:18:09;;;;;;;2.85;0.90;;;2.10;99.90;;;;;;5056546;28;20078;-73
2021/04/07 06:20:42;;;;;;;6.03;1.20;;;2.00;99.90;;;;;;5073656;28;20229;-73
2021/04/07 06:23:10;;;;;;;2.40;0.98;;;2.00;99.90;;;;;;5039796;28;20128;-73
2021/04/07 06:25:37;;;;;;;1.52;0.93;;;2.00;99.90;;;;;;5033055;28;20064;-74
2021/04/07 06:28:09;;;;;;;5.32;1.13;;;2.10;99.90;;;;;;5031651;28;20029;-73
2021/04/07 06:30:46;;;;;;;2.05;1.00;;;2.00;99.90;;;;;;5044807;28;20028;-73
2021/04/07 06:33:19;;;;;;;3.90;1.20;;;2.10;99.90;;;;;;5051632;28;20076;-72
2021/04/07 06:36:03;;;;;;;6.78;1.30;;;2.10;99.90;;;;;;5053121;28;20061;-74
2021/04/07 06:38:31;;;;;;;9.85;1.98;;;2.10;99.90;;;;;;5052014;28;20489;-74
2021/04/07 06:40:58;;;;;;;3.90;1.42;;;2.10;99.90;;;;;;5031711;28;20025;-73
2021/04/07 06:43:34;;;;;;;3.10;1.02;;;2.10;99.90;;;;;;5055629;28;20069;-73
2021/04/07 06:46:05;;;;;;;8.65;1.55;;;2.20;99.90;;;;;;5040753;28;20448;-73
2021/04/07 06:48:31;;;;;;;4.05;0.90;;;2.30;99.90;;;;;;5052598;28;20120;-73
2021/04/07 06:50:57;;;;;;;6.18;1.30;;;2.20;99.90;;;;;;5051253;28;20064;-73
2021/04/07 06:53:26;;;;;;;7.05;1.48;;;2.20;99.90;;;;;;5052778;28;20044;-73
2021/04/07 06:55:53;;;;;;;2.67;0.88;;;2.20;99.90;;;;;;5049993;28;20116;-73
2021/04/07 06:58:19;;;;;;;2.20;1.30;;;2.20;99.90;;;;;;5032710;28;20029;-73
2021/04/07 07:00:45;;;;;;;5.10;1.27;;;2.20;99.90;;;;;;5032752;28;20037;-72
2021/04/07 07:03:14;;;;;;;5.43;1.23;;;2.30;99.90;;;;;;5031489;28;20044;-73
2021/04/07 07:05:44;;;;;;;6.88;1.55;;;2.30;99.90;;;;;;5031919;28;20034;-75
2021/04/07 07:08:14;;;;;;;4.00;1.40;;;2.20;99.90;;;;;;5031075;28;20041;-72
2021/04/07 07:10:48;;;;;;;5.18;1.50;;;2.30;99.90;;;;;;5032512;28;20126;-71
2021/04/07 07:13:25;;;;;;;4.07;1.58;;;2.30;99.90;;;;;;5032274;28;20033;-72
2021/04/07 07:15:53;;;;;;;15.25;1.55;;;2.20;99.90;;;;;;5036241;28;20033;-73
2021/04/07 07:18:24;;;;;;;5.38;1.20;;;2.30;99.90;;;;;;5056548;28;20379;-71
2021/04/07 07:20:50;;;;;;;5.97;1.60;;;2.30;99.90;;;;;;5054731;28;20029;-71
2021/04/07 07:23:29;;;;;;;8.48;2.05;;;2.40;99.90;;;;;;5071210;28;20032;-72
2021/04/07 07:26:06;;;;;;;5.85;1.35;;;2.50;99.90;;;;;;5045124;28;20033;-72
2021/04/07 07:28:50;;;;;;;3.50;1.98;;;2.50;99.90;;;;;;5050180;28;20147;-72
2021/04/07 07:31:17;;;;;;;12.63;1.58;;;2.50;99.90;;;;;;5053388;28;20037;-72
2021/04/07 07:33:43;;;;;;;7.25;1.58;;;2.40;99.90;;;;;;5034191;28;20029;-72
2021/04/07 07:36:09;;;;;;;5.72;1.52;;;2.50;99.90;;;;;;5051945;28;20024;-72
2021/04/07 07:38:42;;;;;;;3.03;1.85;;;2.40;99.90;;;;;;5052085;28;20090;-72
2021/04/07 07:41:08;;;;;;;2.35;1.15;;;2.60;99.90;;;;;;5049023;28;20021;-72
2021/04/07 07:43:37;;;;;;;7.53;1.33;;;2.70;99.90;;;;;;5053397;28;20040;-72
2021/04/07 07:46:13;;;;;;;4.22;1.35;;;2.70;99.90;;;;;;5041196;28;20034;-71
2021/04/07 07:48:41;;;;;;;5.75;1.70;;;2.70;99.90;;;;;;5069435;28;20550;-71
2021/04/07 07:51:19;;;;;;;8.52;2.30;;;2.80;99.90;;;;;;5051367;28;20489;-72
2021/04/07 07:53:48;;;;;;;7.20;1.50;;;3.00;99.90;;;;;;5035108;28;20036;-72
2021/04/07 07:56:17;;;;;;;8.38;1.67;;;3.00;99.90;;;;;;5051496;28;20033;-72
2021/04/07 07:58:50;;;;;;;4.00;1.23;;;3.00;99.90;;;;;;5043438;28;20029;-72
2021/04/07 08:01:18;;;;;;;6.10;1.50;;;3.00;99.90;;;;;;5050439;28;20393;-73
2021/04/07 08:03:47;;;;;;;5.65;1.60;;;3.10;99.90;;;;;;5025427;28;20029;-73
2021/04/07 08:06:15;;;;;;;8.80;1.60;;;3.00;99.90;;;;;;5038473;28;20038;-73
2021/04/07 08:08:42;;;;;;;9.73;1.95;;;3.00;99.90;;;;;;5051609;28;20448;-72
2021/04/07 08:11:09;;;;;;;2.33;1.35;;;3.00;99.90;;;;;;5051644;28;20063;-72
2021/04/07 08:13:43;;;;;;;8.48;1.52;;;3.00;99.90;;;;;;5050721;28;20041;-72
2021/04/07 08:16:14;;;;;;;4.97;1.55;;;3.00;99.90;;;;;;5051778;28;20423;-72
2021/04/07 08:18:41;;;;;;;6.03;1.85;;;3.20;99.90;;;;;;5055462;28;20029;-72
2021/04/07 08:21:07;;;;;;;4.90;1.67;;;3.10;99.90;;;;;;5064312;28;20048;-73
2021/04/07 08:23:36;;;;;;;10.55;2.65;;;3.20;99.90;;;;;;5075439;28;20044;-72
2021/04/07 08:26:05;;;;;;;3.80;1.50;;;3.30;99.90;;;;;;5075750;28;20466;-72
2021/04/07 08:28:32;;;;;;;3.35;1.10;;;3.40;99.90;;;;;;5073866;28;20098;-72
2021/04/07 08:30:58;;;;;;;5.55;1.63;;;3.60;99.90;;;;;;5074413;28;20028;-73
2021/04/07 08:33:24;;;;;;;8.25;1.55;;;3.60;99.90;;;;;;5075369;28;20028;-73
2021/04/07 08:35:52;;;;;;;5.07;1.77;;;3.60;99.90;;;;;;5073846;28;20389;-71
2021/04/07 08:38:33;;;;;;;6.88;1.80;;;3.70;99.90;;;;;;5073647;28;20079;-71
2021/04/07 08:41:17;;;;;;;4.50;1.20;;;3.80;99.80;;;;;;5074250;28;20066;-72
2021/04/07 08:43:43;;;;;;;2.70;1.10;;;3.90;99.60;;;;;;5075325;28;20094;-73
2021/04/07 08:46:23;;;;;;;7.43;1.92;;;4.00;98.60;;;;;;5075079;28;20055;-74
2021/04/07 08:48:49;;;;;;;5.88;1.88;;;4.10;99.40;;;;;;5055352;28;20046;-72
2021/04/07 08:51:19;;;;;;;7.03;1.58;;;4.10;98.60;;;;;;5063916;28;20036;-73
2021/04/07 08:53:49;;;;;;;3.78;1.10;;;4.10;98.70;;;;;;5055102;28;20033;-72
2021/04/07 08:56:32;;;;;;;5.47;1.65;;;4.10;98.90;;;;;;5045094;28;20031;-71
2021/04/07 08:59:03;;;;;;;7.78;1.67;;;4.10;99.00;;;;;;5033570;28;20072;-72
2021/04/07 09:01:34;;;;;;;7.68;1.88;;;4.10;98.40;;;;;;5034710;28;20057;-72
2021/04/07 09:04:11;;;;;;;10.07;2.08;;;4.20;98.90;;;;;;5037475;28;20437;-72
2021/04/07 09:06:39;;;;;;;5.78;1.88;;;4.20;98.10;;;;;;5040196;28;20035;-73
2021/04/07 09:09:07;;;;;;;5.57;1.30;;;4.20;98.30;;;;;;5034401;28;20088;-72
2021/04/07 09:11:38;;;;;;;5.47;1.52;;;4.10;98.20;;;;;;5054075;28;20029;-72
2021/04/07 09:14:06;;;;;;;;;;;4.30;98.50;;;;;;5055014;28;20434;-73
2021/04/07 09:16:37;;;;;;;5.72;1.45;;;4.30;98.50;;;;;;5069456;28;19954;-72
2021/04/07 09:19:27;;;;;;;6.97;1.73;;;4.60;98.30;;;;;;5054469;28;20032;-73
2021/04/07 09:22:04;;;;;;;4.95;1.60;;;4.30;97.90;;;;;;5069228;28;20033;-72
2021/04/07 09:24:44;;;;;;;4.03;1.50;;;4.30;98.30;;;;;;5072968;28;20055;-73
2021/04/07 09:27:25;;;;;;;5.20;1.50;;;4.40;98.40;;;;;;5074505;28;20036;-73
2021/04/07 09:29:51;;;;;;;10.57;1.95;;;4.40;98.10;;;;;;5073687;28;20064;-72
2021/04/07 09:32:20;;;;;;;5.97;1.40;;;4.30;97.80;;;;;;5072799;28;20036;-72
2021/04/07 09:34:46;;;;;;;4.68;1.60;;;4.30;97.50;;;;;;5074018;28;20136;-74
2021/04/07 09:37:14;;;;;;;7.95;1.70;;;4.30;98.20;;;;;;5074182;28;20115;-74
2021/04/07 09:39:40;;;;;;;7.75;1.65;;;4.20;97.60;;;;;;5074048;28;20028;-73
2021/04/07 09:42:08;;;;;;;6.55;1.70;;;4.40;98.00;;;;;;5072842;28;20043;-71
2021/04/07 09:44:34;;;;;;;5.68;1.40;;;4.40;97.80;;;;;;5055552;28;20159;-73
2021/04/07 09:47:00;;;;;;;2.58;1.27;;;4.50;97.60;;;;;;5055613;28;20477;-72
2021/04/07 09:49:32;;;;;;;8.48;1.50;;;4.50;97.20;;;;;;5073200;28;20044;-72
2021/04/07 09:51:59;;;;;;;7.00;1.50;;;4.50;97.20;;;;;;5059039;28;20113;-72
2021/04/07 09:54:27;;;;;;;9.40;1.80;;;4.50;97.20;;;;;;5053501;28;20099;-69
2021/04/07 09:57:12;;;;;;;5.68;1.02;;;4.50;97.30;;;;;;5053460;28;20049;-73
2021/04/07 09:59:45;;;;;;;9.00;1.52;;;4.30;97.10;;;;;;5053246;28;20108;-71
2021/04/07 10:02:26;;;;;;;5.65;1.67;;;4.30;97.70;;;;;;5052390;28;20025;-72
2021/04/07 10:04:53;;;;;;;11.27;2.33;;;4.40;97.40;;;;;;5053686;28;20025;-70
2021/04/07 10:07:23;;;;;;;8.90;1.80;;;4.50;97.30;;;;;;5053140;28;20036;-71
2021/04/07 10:09:54;;;;;;;9.68;1.70;;;4.60;96.90;;;;;;5040136;28;20454;-73
2021/04/07 10:12:33;;;;;;;7.30;1.80;;;4.50;96.30;;;;;;5051489;28;20480;-76
2021/04/07 10:15:04;;;;;;;7.80;1.35;;;4.60;97.10;;;;;;5068682;28;20378;-74
2021/04/07 10:17:40;;;;;;;5.75;1.27;;;4.40;97.40;;;;;;5034692;28;20025;-71
2021/04/07 10:20:15;;;;;;;4.82;1.75;;;4.40;97.40;;;;;;5035467;28;20029;-70
2021/04/07 10:22:44;;;;;;;4.15;1.33;;;4.30;97.10;;;;;;5073170;28;20377;-70
2021/04/07 10:27:39;;;;;;;5.57;1.45;;;4.20;97.60;;;;;;5072962;28;20028;-74
2021/04/07 10:30:13;;;;;;;3.95;1.58;;;4.20;97.50;;;;;;5073120;28;20029;-77
2021/04/07 10:32:43;;;;;;;3.22;2.00;;;4.20;97.70;;;;;;5072893;28;20033;-69
2021/04/07 10:35:17;;;;;;;8.73;2.13;;;4.20;97.70;;;;;;5073003;28;20477;-73
2021/04/07 10:37:55;;;;;;;4.88;1.90;;;4.20;97.10;;;;;;5072972;28;20028;-67
2021/04/07 10:40:27;;;;;;;7.18;1.83;;;4.30;98.00;;;;;;5072900;28;20056;-75
2021/04/07 10:42:53;;;;;;;9.68;1.70;;;4.30;98.00;;;;;;5072683;28;20035;-73
2021/04/07 10:45:22;;;;;;;5.15;1.35;;;4.10;97.60;;;;;;5071262;28;20041;-68
2021/04/07 10:47:49;;;;;;;7.93;1.60;;;4.20;98.30;;;;;;5072843;28;20036;-76
2021/04/07 10:50:16;;;;;;;4.63;1.50;;;4.20;98.40;;;;;;5068682;28;20532;-76
2021/04/07 10:52:46;;;;;;;6.63;2.00;;;4.30;98.50;;;;;;5052710;28;20039;-77
2021/04/07 10:55:25;;;;;;;11.43;1.93;;;4.20;98.90;;;;;;5052732;28;20033;-75
2021/04/07 10:57:57;;;;;;;9.70;1.80;;;4.40;99.10;;;;;;5052545;28;20290;-68
2021/04/07 11:00:39;;;;;;;5.70;1.60;;;4.30;99.10;;;;;;5051332;28;20111;-76
2021/04/07 11:03:06;;;;;;;3.95;1.58;;;4.10;99.40;;;;;;5052217;28;20037;-74
2021/04/07 11:05:44;;;;;;;8.70;1.98;;;4.10;99.90;;;;;;5051043;28;20156;-74
2021/04/07 11:08:13;;;;;;;2.85;1.27;;;4.10;99.90;;;;;;5050348;28;20102;-76
2021/04/07 11:10:47;;;;;;;15.15;1.80;;;4.10;99.90;;;;;;5052348;28;20056;-75
2021/04/07 11:13:16;;;;;;;8.63;2.00;;;3.90;99.90;;;;;;5066914;28;20112;-75
2021/04/07 11:15:42;;;;;;;20.55;2.08;;;3.70;99.90;;;;;;5067613;28;20029;-76
2021/04/07 11:18:08;;;;;;;7.78;1.77;;;3.80;99.90;;;;;;5067883;28;20089;-76
2021/04/07 11:20:37;;;;;;;11.05;1.48;;;3.80;99.90;;;;;;5072893;28;20036;-75
2021/04/07 11:23:03;;;;;;;7.78;2.08;;;3.70;99.90;;;;;;5072185;28;20041;-75
2021/04/07 11:25:29;;;;;;;7.60;1.95;;;3.60;99.90;;;;;;5058850;28;20123;-76
2021/04/07 11:27:57;;;;;;;12.63;1.75;;;3.60;99.90;;;;;;5072254;28;20064;-76
2021/04/07 11:30:30;;;;;;;8.05;2.72;;;3.50;99.90;;;;;;5072188;28;20117;-75
2021/04/07 11:32:59;;;;;;;5.32;1.80;;;3.40;99.90;;;;;;5070875;28;20044;-74
2021/04/07 11:35:41;;;;;;;8.18;2.15;;;3.30;99.90;;;;;;5071844;28;20070;-75
2021/04/07 11:38:09;;;;;;;9.48;2.03;;;3.30;99.90;;;;;;5070395;28;20044;-74
2021/04/07 11:40:57;;;;;;;4.35;1.92;;;3.30;99.90;;;;;;5070964;28;20073;-74
2021/04/07 11:43:34;;;;;;;6.05;2.03;;;3.10;99.90;;;;;;5070859;28;20473;-74
2021/04/07 11:46:06;;;;;;;4.88;2.17;;;3.00;99.90;;;;;;5070644;28;20037;-75
2021/04/07 11:48:41;;;;;;;7.88;2.15;;;3.10;99.90;;;;;;5060314;28;20499;-75
2021/04/07 11:51:06;;;;;;;4.90;2.00;;;3.20;99.90;;;;;;5061943;28;20036;-74
2021/04/07 11:53:35;;;;;;;7.68;1.98;;;3.20;99.90;;;;;;5075419;28;20028;-75
2021/04/07 11:56:07;;;;;;;10.43;2.33;;;3.30;99.90;;;;;;5074426;28;20143;-74
2021/04/07 11:58:33;;;;;;;5.13;1.77;;;3.40;99.90;;;;;;5075849;28;20047;-74
2021/04/07 12:01:03;;;;;;;5.38;1.55;;;3.40;99.90;;;;;;5076094;28;20020;-75
2021/04/07 12:03:29;;;;;;;13.77;2.03;;;3.50;99.90;;;;;;5074532;28;20055;-75
2021/04/07 12:05:56;;;;;;;4.50;1.70;;;3.50;99.90;;;;;;5075980;28;20056;-75
2021/04/07 12:08:31;;;;;;;4.97;1.73;;;3.50;99.90;;;;;;5073736;28;20098;-75
2021/04/07 12:11:00;;;;;;;4.20;1.50;;;3.60;99.90;;;;;;5053191;28;20131;-74
2021/04/07 12:13:28;;;;;;;6.68;1.80;;;3.60;99.90;;;;;;5048000;28;20065;-74
2021/04/07 12:15:55;;;;;;;9.55;2.50;;;3.70;99.90;;;;;;5040405;28;20021;-73
2021/04/07 12:18:22;;;;;;;11.32;2.63;;;3.80;99.90;;;;;;5054215;28;20116;-74
2021/04/07 12:20:48;;;;;;;5.72;1.55;;;3.70;99.90;;;;;;5062813;28;20031;-75
2021/04/07 12:23:14;;;;;;;3.63;2.13;;;3.70;99.90;;;;;;5075737;28;20056;-75
2021/04/07 12:25:44;;;;;;;5.85;2.10;;;3.70;99.90;;;;;;5074270;28;20055;-75
2021/04/07 12:28:10;;;;;;;5.03;1.65;;;3.70;99.90;;;;;;5064556;28;20030;-74
2021/04/07 12:30:52;;;;;;;6.40;2.05;;;3.90;99.90;;;;;;5044919;28;20426;-75
2021/04/07 12:33:30;;;;;;;8.65;1.65;;;3.90;99.90;;;;;;5055389;28;20103;-74
2021/04/07 12:35:57;;;;;;;4.00;1.67;;;4.20;99.90;;;;;;5062841;28;20577;-74
2021/04/07 12:38:31;;;;;;;6.70;1.80;;;4.50;99.90;;;;;;5033991;28;20084;-74
2021/04/07 12:41:00;;;;;;;7.72;2.47;;;4.50;99.90;;;;;;5034717;28;20032;-75
2021/04/07 12:43:32;;;;;;;6.65;1.38;;;4.40;99.90;;;;;;5035307;28;20072;-75
2021/04/07 12:46:00;;;;;;;;;;;4.30;99.90;;;;;;5035574;28;20113;-74
2021/04/07 12:48:26;;;;;;;9.85;2.25;;;4.20;99.90;;;;;;5033821;28;19964;-74
2021/04/07 12:51:01;;;;;;;4.43;1.58;;;4.20;99.90;;;;;;5050911;28;20072;-74
2021/04/07 12:53:29;;;;;;;4.63;1.50;;;4.10;99.90;;;;;;5074725;28;20120;-74
2021/04/07 12:56:17;;;;;;;3.13;1.27;;;4.00;99.90;;;;;;5074905;28;20025;-74
2021/04/07 12:58:48;;;;;;;6.82;1.85;;;4.00;99.90;;;;;;5074889;28;20025;-75
2021/04/07 13:01:25;;;;;;;3.40;1.33;;;4.00;99.90;;;;;;5073355;28;20086;-74
2021/04/07 13:03:57;;;;;;;5.75;1.70;;;3.90;99.90;;;;;;5072330;28;20489;-75
2021/04/07 13:06:25;;;;;;;;;;;3.90;99.90;;;;;;5074962;28;20028;-73
2021/04/07 13:08:56;;;;;;;10.45;2.08;;;3.90;99.90;;;;;;5072292;28;19943;-74
2021/04/07 13:11:25;;;;;;;11.88;2.45;;;3.80;99.90;;;;;;5073523;28;20056;-75